sensor_id;sensor_type;location;lat;lon;timestamp;P1;durP1;ratioP1;P2;durP2;ratioP2
58472;SDS011;44775;51.564;5.460;2023-09-30T00:01:20;30.65;;;15.10;;
58472;SDS011;44775;51.564;5.460;2023-09-30T00:03:47;26.00;;;15.07;;
58472;SDS011;44775;51.564;5.460;2023-09-30T00:06:12;28.13;;;15.23;;
58472;SDS011;44775;51.564;5.460;2023-09-30T00:08:37;26.73;;;15.18;;
58472;SDS011;44775;51.564;5.460;2023-09-30T00:11:05;27.50;;;16.17;;
58472;SDS011;44775;51.564;5.460;2023-09-30T00:13:31;35.22;;;16.33;;
58472;SDS011;44775;51.564;5.460;2023-09-30T00:15:56;28.08;;;15.73;;
58472;SDS011;44775;51.564;5.460;2023-09-30T00:18:22;32.70;;;16.65;;
58472;SDS011;44775;51.564;5.460;2023-09-30T00:20:47;30.27;;;16.80;;
58472;SDS011;44775;51.564;5.460;2023-09-30T00:23:13;30.55;;;16.85;;
58472;SDS011;44775;51.564;5.460;2023-09-30T00:25:38;27.40;;;16.25;;
58472;SDS011;44775;51.564;5.460;2023-09-30T00:28:04;29.80;;;16.85;;
58472;SDS011;44775;51.564;5.460;2023-09-30T00:30:30;35.05;;;17.65;;
58472;SDS011;44775;51.564;5.460;2023-09-30T00:32:55;31.23;;;17.80;;
58472;SDS011;44775;51.564;5.460;2023-09-30T00:35:20;32.42;;;17.63;;
58472;SDS011;44775;51.564;5.460;2023-09-30T00:37:46;28.58;;;17.42;;
58472;SDS011;44775;51.564;5.460;2023-09-30T00:40:11;35.20;;;18.63;;
58472;SDS011;44775;51.564;5.460;2023-09-30T00:42:40;31.33;;;18.05;;
58472;SDS011;44775;51.564;5.460;2023-09-30T00:45:06;28.02;;;17.92;;
58472;SDS011;44775;51.564;5.460;2023-09-30T00:47:34;37.53;;;19.13;;
58472;SDS011;44775;51.564;5.460;2023-09-30T00:50:00;30.45;;;17.10;;
58472;SDS011;44775;51.564;5.460;2023-09-30T00:52:26;29.33;;;18.38;;
58472;SDS011;44775;51.564;5.460;2023-09-30T00:54:52;32.58;;;18.00;;
58472;SDS011;44775;51.564;5.460;2023-09-30T00:57:19;34.53;;;17.88;;
58472;SDS011;44775;51.564;5.460;2023-09-30T00:59:46;33.80;;;19.92;;
58472;SDS011;44775;51.564;5.460;2023-09-30T01:02:13;31.75;;;18.45;;
58472;SDS011;44775;51.564;5.460;2023-09-30T01:04:39;33.88;;;18.77;;
58472;SDS011;44775;51.564;5.460;2023-09-30T01:07:05;31.20;;;18.13;;
58472;SDS011;44775;51.564;5.460;2023-09-30T01:09:30;35.60;;;19.27;;
58472;SDS011;44775;51.564;5.460;2023-09-30T01:11:56;28.65;;;18.10;;
58472;SDS011;44775;51.564;5.460;2023-09-30T01:14:28;31.30;;;17.52;;
58472;SDS011;44775;51.564;5.460;2023-09-30T01:16:55;29.35;;;17.95;;
58472;SDS011;44775;51.564;5.460;2023-09-30T01:19:21;33.53;;;18.40;;
58472;SDS011;44775;51.564;5.460;2023-09-30T01:21:50;28.85;;;17.77;;
58472;SDS011;44775;51.564;5.460;2023-09-30T01:24:17;31.95;;;17.95;;
58472;SDS011;44775;51.564;5.460;2023-09-30T01:26:42;30.67;;;19.40;;
58472;SDS011;44775;51.564;5.460;2023-09-30T01:29:08;27.83;;;17.67;;
58472;SDS011;44775;51.564;5.460;2023-09-30T01:31:36;29.50;;;17.17;;
58472;SDS011;44775;51.564;5.460;2023-09-30T01:34:02;30.45;;;19.08;;
58472;SDS011;44775;51.564;5.460;2023-09-30T01:36:27;30.17;;;18.65;;
58472;SDS011;44775;51.564;5.460;2023-09-30T01:38:53;37.67;;;20.48;;
58472;SDS011;44775;51.564;5.460;2023-09-30T01:41:19;37.10;;;19.65;;
58472;SDS011;44775;51.564;5.460;2023-09-30T01:43:44;35.20;;;20.05;;
58472;SDS011;44775;51.564;5.460;2023-09-30T01:46:09;36.15;;;19.95;;
58472;SDS011;44775;51.564;5.460;2023-09-30T01:48:34;35.83;;;19.00;;
58472;SDS011;44775;51.564;5.460;2023-09-30T01:51:00;29.55;;;18.67;;
58472;SDS011;44775;51.564;5.460;2023-09-30T01:53:26;35.53;;;19.45;;
58472;SDS011;44775;51.564;5.460;2023-09-30T01:55:51;31.48;;;18.73;;
58472;SDS011;44775;51.564;5.460;2023-09-30T01:58:16;36.63;;;20.30;;
58472;SDS011;44775;51.564;5.460;2023-09-30T02:00:42;34.92;;;18.48;;
58472;SDS011;44775;51.564;5.460;2023-09-30T02:03:08;31.23;;;18.67;;
58472;SDS011;44775;51.564;5.460;2023-09-30T02:05:33;37.30;;;19.25;;
58472;SDS011;44775;51.564;5.460;2023-09-30T02:07:58;38.13;;;20.25;;
58472;SDS011;44775;51.564;5.460;2023-09-30T02:10:23;37.80;;;19.85;;
58472;SDS011;44775;51.564;5.460;2023-09-30T02:12:49;33.33;;;19.20;;
58472;SDS011;44775;51.564;5.460;2023-09-30T02:15:14;37.15;;;19.55;;
58472;SDS011;44775;51.564;5.460;2023-09-30T02:17:40;38.25;;;20.15;;
58472;SDS011;44775;51.564;5.460;2023-09-30T02:20:10;36.20;;;19.58;;
58472;SDS011;44775;51.564;5.460;2023-09-30T02:22:37;38.60;;;20.02;;
58472;SDS011;44775;51.564;5.460;2023-09-30T02:25:03;36.22;;;19.50;;
58472;SDS011;44775;51.564;5.460;2023-09-30T02:27:32;37.58;;;18.85;;
58472;SDS011;44775;51.564;5.460;2023-09-30T02:29:57;33.30;;;19.58;;
58472;SDS011;44775;51.564;5.460;2023-09-30T02:32:22;34.30;;;18.60;;
58472;SDS011;44775;51.564;5.460;2023-09-30T02:34:49;35.10;;;18.50;;
58472;SDS011;44775;51.564;5.460;2023-09-30T02:37:15;33.03;;;18.92;;
58472;SDS011;44775;51.564;5.460;2023-09-30T02:39:42;35.42;;;18.65;;
58472;SDS011;44775;51.564;5.460;2023-09-30T02:42:08;37.13;;;19.20;;
58472;SDS011;44775;51.564;5.460;2023-09-30T02:44:33;32.17;;;17.88;;
58472;SDS011;44775;51.564;5.460;2023-09-30T02:46:59;33.03;;;18.52;;
58472;SDS011;44775;51.564;5.460;2023-09-30T02:49:24;35.85;;;18.17;;
58472;SDS011;44775;51.564;5.460;2023-09-30T02:51:49;37.55;;;19.33;;
58472;SDS011;44775;51.564;5.460;2023-09-30T02:54:15;33.15;;;19.42;;
58472;SDS011;44775;51.564;5.460;2023-09-30T02:56:41;32.20;;;18.65;;
58472;SDS011;44775;51.564;5.460;2023-09-30T02:59:07;34.72;;;18.55;;
58472;SDS011;44775;51.564;5.460;2023-09-30T03:01:33;33.80;;;19.35;;
58472;SDS011;44775;51.564;5.460;2023-09-30T03:03:59;33.72;;;19.13;;
58472;SDS011;44775;51.564;5.460;2023-09-30T03:06:24;37.05;;;19.30;;
58472;SDS011;44775;51.564;5.460;2023-09-30T03:08:50;31.45;;;19.13;;
58472;SDS011;44775;51.564;5.460;2023-09-30T03:11:16;39.42;;;19.92;;
58472;SDS011;44775;51.564;5.460;2023-09-30T03:13:42;35.85;;;19.60;;
58472;SDS011;44775;51.564;5.460;2023-09-30T03:16:08;33.35;;;19.58;;
58472;SDS011;44775;51.564;5.460;2023-09-30T03:18:34;36.70;;;19.15;;
58472;SDS011;44775;51.564;5.460;2023-09-30T03:21:00;33.45;;;19.70;;
58472;SDS011;44775;51.564;5.460;2023-09-30T03:23:29;37.58;;;19.58;;
58472;SDS011;44775;51.564;5.460;2023-09-30T03:25:59;35.38;;;19.60;;
58472;SDS011;44775;51.564;5.460;2023-09-30T03:28:25;36.92;;;19.70;;
58472;SDS011;44775;51.564;5.460;2023-09-30T03:30:51;35.90;;;19.50;;
58472;SDS011;44775;51.564;5.460;2023-09-30T03:33:17;35.05;;;18.95;;
58472;SDS011;44775;51.564;5.460;2023-09-30T03:35:42;34.90;;;18.75;;
58472;SDS011;44775;51.564;5.460;2023-09-30T03:38:09;40.58;;;19.40;;
58472;SDS011;44775;51.564;5.460;2023-09-30T03:43:03;32.25;;;17.85;;
58472;SDS011;44775;51.564;5.460;2023-09-30T03:45:30;34.20;;;19.48;;
58472;SDS011;44775;51.564;5.460;2023-09-30T03:47:58;36.15;;;18.48;;
58472;SDS011;44775;51.564;5.460;2023-09-30T03:50:23;35.15;;;18.58;;
58472;SDS011;44775;51.564;5.460;2023-09-30T03:52:49;38.65;;;19.77;;
58472;SDS011;44775;51.564;5.460;2023-09-30T03:55:15;35.22;;;18.05;;
58472;SDS011;44775;51.564;5.460;2023-09-30T03:57:43;39.37;;;19.27;;
58472;SDS011;44775;51.564;5.460;2023-09-30T04:00:12;34.83;;;18.77;;
58472;SDS011;44775;51.564;5.460;2023-09-30T04:02:41;33.83;;;18.63;;
58472;SDS011;44775;51.564;5.460;2023-09-30T04:05:07;36.35;;;19.98;;
58472;SDS011;44775;51.564;5.460;2023-09-30T04:07:36;39.00;;;20.55;;
58472;SDS011;44775;51.564;5.460;2023-09-30T04:10:01;44.47;;;20.52;;
58472;SDS011;44775;51.564;5.460;2023-09-30T04:12:27;35.85;;;18.98;;
58472;SDS011;44775;51.564;5.460;2023-09-30T04:14:53;36.70;;;19.55;;
58472;SDS011;44775;51.564;5.460;2023-09-30T04:17:18;39.65;;;19.13;;
58472;SDS011;44775;51.564;5.460;2023-09-30T04:19:44;38.80;;;19.63;;
58472;SDS011;44775;51.564;5.460;2023-09-30T04:22:10;44.08;;;19.88;;
58472;SDS011;44775;51.564;5.460;2023-09-30T04:24:36;39.05;;;19.80;;
58472;SDS011;44775;51.564;5.460;2023-09-30T04:27:02;39.53;;;21.27;;
58472;SDS011;44775;51.564;5.460;2023-09-30T04:29:30;43.37;;;21.67;;
58472;SDS011;44775;51.564;5.460;2023-09-30T04:31:56;41.83;;;20.83;;
58472;SDS011;44775;51.564;5.460;2023-09-30T04:34:21;42.53;;;20.65;;
58472;SDS011;44775;51.564;5.460;2023-09-30T04:36:47;40.97;;;21.35;;
58472;SDS011;44775;51.564;5.460;2023-09-30T04:39:12;49.00;;;22.75;;
58472;SDS011;44775;51.564;5.460;2023-09-30T04:41:39;43.58;;;21.73;;
58472;SDS011;44775;51.564;5.460;2023-09-30T04:44:06;41.55;;;22.20;;
58472;SDS011;44775;51.564;5.460;2023-09-30T04:46:34;47.10;;;21.65;;
58472;SDS011;44775;51.564;5.460;2023-09-30T04:49:00;46.63;;;22.55;;
58472;SDS011;44775;51.564;5.460;2023-09-30T04:51:26;49.33;;;23.55;;
58472;SDS011;44775;51.564;5.460;2023-09-30T04:53:51;44.33;;;22.05;;
58472;SDS011;44775;51.564;5.460;2023-09-30T04:56:16;52.15;;;24.45;;
58472;SDS011;44775;51.564;5.460;2023-09-30T04:58:42;51.75;;;23.23;;
58472;SDS011;44775;51.564;5.460;2023-09-30T05:01:07;50.45;;;23.83;;
58472;SDS011;44775;51.564;5.460;2023-09-30T05:03:33;50.88;;;23.40;;
58472;SDS011;44775;51.564;5.460;2023-09-30T05:06:00;50.88;;;22.67;;
58472;SDS011;44775;51.564;5.460;2023-09-30T05:08:25;50.40;;;23.08;;
58472;SDS011;44775;51.564;5.460;2023-09-30T05:10:51;53.10;;;23.45;;
58472;SDS011;44775;51.564;5.460;2023-09-30T05:13:20;50.47;;;23.27;;
58472;SDS011;44775;51.564;5.460;2023-09-30T05:15:45;50.45;;;23.02;;
58472;SDS011;44775;51.564;5.460;2023-09-30T05:18:11;54.38;;;24.15;;
58472;SDS011;44775;51.564;5.460;2023-09-30T05:20:36;58.53;;;24.83;;
58472;SDS011;44775;51.564;5.460;2023-09-30T05:23:03;52.38;;;23.65;;
58472;SDS011;44775;51.564;5.460;2023-09-30T05:25:29;53.55;;;24.05;;
58472;SDS011;44775;51.564;5.460;2023-09-30T05:27:54;59.28;;;23.25;;
58472;SDS011;44775;51.564;5.460;2023-09-30T05:30:19;54.38;;;22.67;;
58472;SDS011;44775;51.564;5.460;2023-09-30T05:32:45;55.25;;;24.23;;
58472;SDS011;44775;51.564;5.460;2023-09-30T05:35:11;56.90;;;24.17;;
58472;SDS011;44775;51.564;5.460;2023-09-30T05:37:38;60.00;;;24.70;;
58472;SDS011;44775;51.564;5.460;2023-09-30T05:40:08;57.35;;;23.45;;
58472;SDS011;44775;51.564;5.460;2023-09-30T05:42:45;54.33;;;24.13;;
58472;SDS011;44775;51.564;5.460;2023-09-30T05:45:10;56.40;;;24.67;;
58472;SDS011;44775;51.564;5.460;2023-09-30T05:47:37;60.58;;;25.00;;
58472;SDS011;44775;51.564;5.460;2023-09-30T05:50:03;57.53;;;24.20;;
58472;SDS011;44775;51.564;5.460;2023-09-30T05:52:29;56.90;;;24.77;;
58472;SDS011;44775;51.564;5.460;2023-09-30T05:54:54;62.88;;;25.88;;
58472;SDS011;44775;51.564;5.460;2023-09-30T05:57:19;53.03;;;24.55;;
58472;SDS011;44775;51.564;5.460;2023-09-30T05:59:45;61.10;;;25.15;;
58472;SDS011;44775;51.564;5.460;2023-09-30T06:02:11;54.97;;;22.80;;
58472;SDS011;44775;51.564;5.460;2023-09-30T06:04:37;57.50;;;23.75;;
58472;SDS011;44775;51.564;5.460;2023-09-30T06:07:02;47.33;;;22.70;;
58472;SDS011;44775;51.564;5.460;2023-09-30T06:09:27;51.83;;;23.17;;
58472;SDS011;44775;51.564;5.460;2023-09-30T06:11:55;54.78;;;23.73;;
58472;SDS011;44775;51.564;5.460;2023-09-30T06:14:20;52.88;;;23.48;;
58472;SDS011;44775;51.564;5.460;2023-09-30T06:16:46;55.38;;;23.60;;
58472;SDS011;44775;51.564;5.460;2023-09-30T06:19:12;56.45;;;23.70;;
58472;SDS011;44775;51.564;5.460;2023-09-30T06:21:38;55.30;;;22.48;;
58472;SDS011;44775;51.564;5.460;2023-09-30T06:24:04;53.08;;;23.08;;
58472;SDS011;44775;51.564;5.460;2023-09-30T06:26:30;52.72;;;22.23;;
58472;SDS011;44775;51.564;5.460;2023-09-30T06:28:55;52.50;;;22.50;;
58472;SDS011;44775;51.564;5.460;2023-09-30T06:31:21;48.75;;;21.55;;
58472;SDS011;44775;51.564;5.460;2023-09-30T06:33:48;49.40;;;22.42;;
58472;SDS011;44775;51.564;5.460;2023-09-30T06:36:13;54.17;;;23.05;;
58472;SDS011;44775;51.564;5.460;2023-09-30T06:38:39;53.00;;;22.73;;
58472;SDS011;44775;51.564;5.460;2023-09-30T06:41:04;52.10;;;22.80;;
58472;SDS011;44775;51.564;5.460;2023-09-30T06:43:30;56.63;;;23.75;;
58472;SDS011;44775;51.564;5.460;2023-09-30T06:45:57;52.35;;;23.27;;
58472;SDS011;44775;51.564;5.460;2023-09-30T06:48:22;54.42;;;21.45;;
58472;SDS011;44775;51.564;5.460;2023-09-30T06:50:48;52.63;;;23.55;;
58472;SDS011;44775;51.564;5.460;2023-09-30T06:53:18;55.15;;;24.30;;
58472;SDS011;44775;51.564;5.460;2023-09-30T06:55:44;58.00;;;23.02;;
58472;SDS011;44775;51.564;5.460;2023-09-30T06:58:10;53.13;;;23.23;;
58472;SDS011;44775;51.564;5.460;2023-09-30T07:00:42;54.05;;;22.50;;
58472;SDS011;44775;51.564;5.460;2023-09-30T07:03:07;53.67;;;21.02;;
58472;SDS011;44775;51.564;5.460;2023-09-30T07:05:35;57.90;;;21.95;;
58472;SDS011;44775;51.564;5.460;2023-09-30T07:08:01;52.03;;;22.70;;
58472;SDS011;44775;51.564;5.460;2023-09-30T07:10:27;53.95;;;22.55;;
58472;SDS011;44775;51.564;5.460;2023-09-30T07:12:54;50.60;;;22.98;;
58472;SDS011;44775;51.564;5.460;2023-09-30T07:15:19;54.35;;;23.08;;
58472;SDS011;44775;51.564;5.460;2023-09-30T07:17:45;53.00;;;22.50;;
58472;SDS011;44775;51.564;5.460;2023-09-30T07:20:12;54.83;;;24.00;;
58472;SDS011;44775;51.564;5.460;2023-09-30T07:22:38;54.70;;;23.75;;
58472;SDS011;44775;51.564;5.460;2023-09-30T07:25:03;53.50;;;22.80;;
58472;SDS011;44775;51.564;5.460;2023-09-30T07:27:29;40.45;;;19.50;;
58472;SDS011;44775;51.564;5.460;2023-09-30T07:29:56;38.65;;;19.23;;
58472;SDS011;44775;51.564;5.460;2023-09-30T07:32:21;39.17;;;19.42;;
58472;SDS011;44775;51.564;5.460;2023-09-30T07:34:49;48.08;;;19.70;;
58472;SDS011;44775;51.564;5.460;2023-09-30T07:37:16;42.63;;;17.95;;
58472;SDS011;44775;51.564;5.460;2023-09-30T07:39:42;39.22;;;17.52;;
58472;SDS011;44775;51.564;5.460;2023-09-30T07:42:08;34.47;;;16.70;;
58472;SDS011;44775;51.564;5.460;2023-09-30T07:44:34;41.60;;;17.08;;
58472;SDS011;44775;51.564;5.460;2023-09-30T07:47:02;30.37;;;16.30;;
58472;SDS011;44775;51.564;5.460;2023-09-30T07:49:28;33.92;;;14.50;;
58472;SDS011;44775;51.564;5.460;2023-09-30T07:51:54;33.08;;;14.95;;
58472;SDS011;44775;51.564;5.460;2023-09-30T07:54:20;27.73;;;12.88;;
58472;SDS011;44775;51.564;5.460;2023-09-30T07:56:45;31.10;;;13.93;;
58472;SDS011;44775;51.564;5.460;2023-09-30T07:59:10;27.55;;;13.30;;
58472;SDS011;44775;51.564;5.460;2023-09-30T08:01:36;31.20;;;14.63;;
58472;SDS011;44775;51.564;5.460;2023-09-30T08:04:02;30.98;;;14.15;;
58472;SDS011;44775;51.564;5.460;2023-09-30T08:06:27;28.63;;;14.07;;
58472;SDS011;44775;51.564;5.460;2023-09-30T08:08:53;30.75;;;13.23;;
58472;SDS011;44775;51.564;5.460;2023-09-30T08:11:20;24.70;;;12.73;;
58472;SDS011;44775;51.564;5.460;2023-09-30T08:13:45;23.90;;;12.60;;
58472;SDS011;44775;51.564;5.460;2023-09-30T08:16:11;23.52;;;11.50;;
58472;SDS011;44775;51.564;5.460;2023-09-30T08:18:36;28.40;;;12.52;;
58472;SDS011;44775;51.564;5.460;2023-09-30T08:21:02;22.83;;;11.90;;
58472;SDS011;44775;51.564;5.460;2023-09-30T08:23:27;20.60;;;11.23;;
58472;SDS011;44775;51.564;5.460;2023-09-30T08:25:52;26.42;;;10.88;;
58472;SDS011;44775;51.564;5.460;2023-09-30T08:28:19;20.42;;;10.43;;
58472;SDS011;44775;51.564;5.460;2023-09-30T08:30:48;21.38;;;10.02;;
58472;SDS011;44775;51.564;5.460;2023-09-30T08:33:15;19.15;;;9.80;;
58472;SDS011;44775;51.564;5.460;2023-09-30T08:35:41;20.05;;;10.73;;
58472;SDS011;44775;51.564;5.460;2023-09-30T08:38:06;26.33;;;10.18;;
58472;SDS011;44775;51.564;5.460;2023-09-30T08:40:32;18.70;;;9.38;;
58472;SDS011;44775;51.564;5.460;2023-09-30T08:42:57;17.05;;;8.90;;
58472;SDS011;44775;51.564;5.460;2023-09-30T08:45:24;20.77;;;9.98;;
58472;SDS011;44775;51.564;5.460;2023-09-30T08:47:53;18.23;;;8.73;;
58472;SDS011;44775;51.564;5.460;2023-09-30T08:50:19;20.63;;;9.43;;
58472;SDS011;44775;51.564;5.460;2023-09-30T08:52:46;21.50;;;9.05;;
58472;SDS011;44775;51.564;5.460;2023-09-30T08:55:13;15.95;;;8.82;;
58472;SDS011;44775;51.564;5.460;2023-09-30T08:57:39;18.30;;;9.10;;
58472;SDS011;44775;51.564;5.460;2023-09-30T09:00:06;19.13;;;9.30;;
58472;SDS011;44775;51.564;5.460;2023-09-30T09:02:35;20.33;;;9.02;;
58472;SDS011;44775;51.564;5.460;2023-09-30T09:05:01;15.23;;;7.97;;
58472;SDS011;44775;51.564;5.460;2023-09-30T09:07:27;17.70;;;7.68;;
58472;SDS011;44775;51.564;5.460;2023-09-30T09:10:02;17.75;;;8.27;;
58472;SDS011;44775;51.564;5.460;2023-09-30T09:12:33;18.48;;;7.57;;
58472;SDS011;44775;51.564;5.460;2023-09-30T09:14:59;17.95;;;7.65;;
58472;SDS011;44775;51.564;5.460;2023-09-30T09:17:24;17.10;;;8.60;;
58472;SDS011;44775;51.564;5.460;2023-09-30T09:20:06;18.23;;;7.78;;
58472;SDS011;44775;51.564;5.460;2023-09-30T09:22:41;16.92;;;7.72;;
58472;SDS011;44775;51.564;5.460;2023-09-30T09:25:07;16.40;;;7.57;;
58472;SDS011;44775;51.564;5.460;2023-09-30T09:27:35;15.85;;;7.43;;
58472;SDS011;44775;51.564;5.460;2023-09-30T09:35:22;13.40;;;7.25;;
58472;SDS011;44775;51.564;5.460;2023-09-30T09:38:03;14.40;;;7.90;;
58472;SDS011;44775;51.564;5.460;2023-09-30T09:40:30;16.63;;;8.48;;
58472;SDS011;44775;51.564;5.460;2023-09-30T09:43:00;14.10;;;8.00;;
58472;SDS011;44775;51.564;5.460;2023-09-30T09:45:29;17.17;;;7.75;;
58472;SDS011;44775;51.564;5.460;2023-09-30T09:47:57;18.52;;;9.00;;
58472;SDS011;44775;51.564;5.460;2023-09-30T09:50:23;15.55;;;8.75;;
58472;SDS011;44775;51.564;5.460;2023-09-30T09:52:50;18.08;;;9.02;;
58472;SDS011;44775;51.564;5.460;2023-09-30T09:55:20;13.48;;;8.52;;
58472;SDS011;44775;51.564;5.460;2023-09-30T09:57:48;16.80;;;8.80;;
58472;SDS011;44775;51.564;5.460;2023-09-30T10:00:18;15.80;;;8.27;;
58472;SDS011;44775;51.564;5.460;2023-09-30T10:02:45;15.13;;;8.05;;
58472;SDS011;44775;51.564;5.460;2023-09-30T10:05:11;13.05;;;7.47;;
58472;SDS011;44775;51.564;5.460;2023-09-30T10:07:39;14.30;;;8.20;;
58472;SDS011;44775;51.564;5.460;2023-09-30T10:10:12;19.40;;;8.57;;
58472;SDS011;44775;51.564;5.460;2023-09-30T10:12:41;15.85;;;7.97;;
58472;SDS011;44775;51.564;5.460;2023-09-30T10:18:01;16.60;;;8.82;;
58472;SDS011;44775;51.564;5.460;2023-09-30T10:20:35;14.13;;;8.27;;
58472;SDS011;44775;51.564;5.460;2023-09-30T10:23:19;15.63;;;8.32;;
58472;SDS011;44775;51.564;5.460;2023-09-30T10:25:53;15.25;;;8.65;;
58472;SDS011;44775;51.564;5.460;2023-09-30T10:31:13;16.10;;;8.77;;
58472;SDS011;44775;51.564;5.460;2023-09-30T10:36:30;19.50;;;9.45;;
58472;SDS011;44775;51.564;5.460;2023-09-30T10:39:01;14.95;;;9.02;;
58472;SDS011;44775;51.564;5.460;2023-09-30T10:46:58;12.65;;;7.88;;
58472;SDS011;44775;51.564;5.460;2023-09-30T10:51:50;13.60;;;8.15;;
58472;SDS011;44775;51.564;5.460;2023-09-30T10:54:50;13.15;;;7.70;;
58472;SDS011;44775;51.564;5.460;2023-09-30T10:57:10;14.63;;;8.07;;
58472;SDS011;44775;51.564;5.460;2023-09-30T10:59:35;14.38;;;8.45;;
58472;SDS011;44775;51.564;5.460;2023-09-30T11:02:01;13.82;;;7.38;;
58472;SDS011;44775;51.564;5.460;2023-09-30T11:04:26;12.15;;;6.53;;
58472;SDS011;44775;51.564;5.460;2023-09-30T11:06:54;10.20;;;5.68;;
58472;SDS011;44775;51.564;5.460;2023-09-30T11:09:20;12.65;;;6.28;;
58472;SDS011;44775;51.564;5.460;2023-09-30T11:11:51;14.38;;;5.90;;
58472;SDS011;44775;51.564;5.460;2023-09-30T11:14:23;11.80;;;5.43;;
58472;SDS011;44775;51.564;5.460;2023-09-30T11:16:53;12.98;;;5.72;;
58472;SDS011;44775;51.564;5.460;2023-09-30T11:19:20;13.07;;;5.88;;
58472;SDS011;44775;51.564;5.460;2023-09-30T11:21:50;10.55;;;4.22;;
58472;SDS011;44775;51.564;5.460;2023-09-30T11:24:19;10.05;;;3.88;;
58472;SDS011;44775;51.564;5.460;2023-09-30T11:26:45;8.20;;;3.83;;
58472;SDS011;44775;51.564;5.460;2023-09-30T11:29:15;10.43;;;3.80;;
58472;SDS011;44775;51.564;5.460;2023-09-30T11:31:43;9.15;;;4.50;;
58472;SDS011;44775;51.564;5.460;2023-09-30T11:34:10;7.57;;;3.90;;
58472;SDS011;44775;51.564;5.460;2023-09-30T11:36:37;8.27;;;3.60;;
58472;SDS011;44775;51.564;5.460;2023-09-30T11:39:04;8.38;;;3.80;;
58472;SDS011;44775;51.564;5.460;2023-09-30T11:41:33;9.30;;;4.25;;
58472;SDS011;44775;51.564;5.460;2023-09-30T11:44:10;12.13;;;3.58;;
58472;SDS011;44775;51.564;5.460;2023-09-30T11:49:26;9.68;;;3.45;;
58472;SDS011;44775;51.564;5.460;2023-09-30T11:51:53;8.90;;;3.50;;
58472;SDS011;44775;51.564;5.460;2023-09-30T11:54:19;8.05;;;3.38;;
58472;SDS011;44775;51.564;5.460;2023-09-30T11:56:46;8.80;;;3.63;;
58472;SDS011;44775;51.564;5.460;2023-09-30T11:59:12;9.20;;;3.15;;
58472;SDS011;44775;51.564;5.460;2023-09-30T12:01:38;10.18;;;3.25;;
58472;SDS011;44775;51.564;5.460;2023-09-30T12:04:03;9.43;;;3.28;;
58472;SDS011;44775;51.564;5.460;2023-09-30T12:06:29;11.75;;;3.20;;
58472;SDS011;44775;51.564;5.460;2023-09-30T12:08:54;8.73;;;2.90;;
58472;SDS011;44775;51.564;5.460;2023-09-30T12:11:20;10.13;;;3.50;;
58472;SDS011;44775;51.564;5.460;2023-09-30T12:13:48;7.68;;;3.17;;
58472;SDS011;44775;51.564;5.460;2023-09-30T12:16:14;7.00;;;3.30;;
58472;SDS011;44775;51.564;5.460;2023-09-30T12:18:40;8.25;;;3.60;;
58472;SDS011;44775;51.564;5.460;2023-09-30T12:21:07;9.60;;;3.50;;
58472;SDS011;44775;51.564;5.460;2023-09-30T12:23:36;6.95;;;2.92;;
58472;SDS011;44775;51.564;5.460;2023-09-30T12:26:02;10.27;;;2.95;;
58472;SDS011;44775;51.564;5.460;2023-09-30T12:28:30;9.23;;;3.20;;
58472;SDS011;44775;51.564;5.460;2023-09-30T12:30:57;9.95;;;3.45;;
58472;SDS011;44775;51.564;5.460;2023-09-30T12:33:23;12.80;;;3.45;;
58472;SDS011;44775;51.564;5.460;2023-09-30T12:35:48;6.63;;;2.70;;
58472;SDS011;44775;51.564;5.460;2023-09-30T12:38:13;9.27;;;3.70;;
58472;SDS011;44775;51.564;5.460;2023-09-30T12:40:41;10.73;;;3.38;;
58472;SDS011;44775;51.564;5.460;2023-09-30T12:43:06;7.53;;;3.10;;
58472;SDS011;44775;51.564;5.460;2023-09-30T12:45:31;7.88;;;3.15;;
58472;SDS011;44775;51.564;5.460;2023-09-30T12:47:57;7.32;;;3.17;;
58472;SDS011;44775;51.564;5.460;2023-09-30T12:50:25;9.35;;;2.97;;
58472;SDS011;44775;51.564;5.460;2023-09-30T12:52:50;8.60;;;3.05;;
58472;SDS011;44775;51.564;5.460;2023-09-30T12:55:15;8.13;;;2.85;;
58472;SDS011;44775;51.564;5.460;2023-09-30T12:57:41;8.00;;;3.10;;
58472;SDS011;44775;51.564;5.460;2023-09-30T13:00:06;13.30;;;3.42;;
58472;SDS011;44775;51.564;5.460;2023-09-30T13:02:34;8.68;;;3.28;;
58472;SDS011;44775;51.564;5.460;2023-09-30T13:04:59;7.07;;;2.90;;
58472;SDS011;44775;51.564;5.460;2023-09-30T13:07:25;7.57;;;2.95;;
58472;SDS011;44775;51.564;5.460;2023-09-30T13:09:50;9.27;;;3.30;;
58472;SDS011;44775;51.564;5.460;2023-09-30T13:12:16;6.95;;;3.10;;
58472;SDS011;44775;51.564;5.460;2023-09-30T13:14:42;7.47;;;3.13;;
58472;SDS011;44775;51.564;5.460;2023-09-30T13:17:07;7.95;;;3.20;;
58472;SDS011;44775;51.564;5.460;2023-09-30T13:19:32;9.05;;;3.08;;
58472;SDS011;44775;51.564;5.460;2023-09-30T13:21:58;5.70;;;2.90;;
58472;SDS011;44775;51.564;5.460;2023-09-30T13:24:23;9.35;;;3.58;;
58472;SDS011;44775;51.564;5.460;2023-09-30T13:26:48;7.57;;;3.30;;
58472;SDS011;44775;51.564;5.460;2023-09-30T13:29:15;7.97;;;3.30;;
58472;SDS011;44775;51.564;5.460;2023-09-30T13:31:41;8.02;;;3.22;;
58472;SDS011;44775;51.564;5.460;2023-09-30T13:34:07;6.63;;;2.50;;
58472;SDS011;44775;51.564;5.460;2023-09-30T13:36:33;9.57;;;3.28;;
58472;SDS011;44775;51.564;5.460;2023-09-30T13:38:59;8.55;;;3.00;;
58472;SDS011;44775;51.564;5.460;2023-09-30T13:41:25;10.15;;;3.03;;
58472;SDS011;44775;51.564;5.460;2023-09-30T13:43:51;7.95;;;3.03;;
58472;SDS011;44775;51.564;5.460;2023-09-30T13:46:17;8.85;;;3.50;;
58472;SDS011;44775;51.564;5.460;2023-09-30T13:48:42;9.68;;;3.45;;
58472;SDS011;44775;51.564;5.460;2023-09-30T13:51:09;7.20;;;3.40;;
58472;SDS011;44775;51.564;5.460;2023-09-30T13:53:35;9.50;;;3.38;;
58472;SDS011;44775;51.564;5.460;2023-09-30T13:56:01;9.63;;;3.50;;
58472;SDS011;44775;51.564;5.460;2023-09-30T13:58:29;6.75;;;3.47;;
58472;SDS011;44775;51.564;5.460;2023-09-30T14:00:54;9.25;;;3.95;;
58472;SDS011;44775;51.564;5.460;2023-09-30T14:03:21;9.82;;;3.15;;
58472;SDS011;44775;51.564;5.460;2023-09-30T14:05:49;8.38;;;3.30;;
58472;SDS011;44775;51.564;5.460;2023-09-30T14:08:14;10.73;;;3.33;;
58472;SDS011;44775;51.564;5.460;2023-09-30T14:10:41;8.13;;;3.40;;
58472;SDS011;44775;51.564;5.460;2023-09-30T14:13:06;10.35;;;3.38;;
58472;SDS011;44775;51.564;5.460;2023-09-30T14:15:32;8.65;;;3.00;;
58472;SDS011;44775;51.564;5.460;2023-09-30T14:17:57;8.48;;;3.20;;
58472;SDS011;44775;51.564;5.460;2023-09-30T14:20:23;8.18;;;3.03;;
58472;SDS011;44775;51.564;5.460;2023-09-30T14:22:49;7.60;;;3.05;;
58472;SDS011;44775;51.564;5.460;2023-09-30T14:25:16;8.27;;;3.20;;
58472;SDS011;44775;51.564;5.460;2023-09-30T14:27:42;8.52;;;2.70;;
58472;SDS011;44775;51.564;5.460;2023-09-30T14:30:07;7.30;;;2.85;;
58472;SDS011;44775;51.564;5.460;2023-09-30T14:32:33;8.30;;;3.15;;
58472;SDS011;44775;51.564;5.460;2023-09-30T14:34:59;7.03;;;3.42;;
58472;SDS011;44775;51.564;5.460;2023-09-30T14:37:24;7.30;;;3.33;;
58472;SDS011;44775;51.564;5.460;2023-09-30T14:39:49;9.60;;;3.38;;
58472;SDS011;44775;51.564;5.460;2023-09-30T14:42:15;8.35;;;3.20;;
58472;SDS011;44775;51.564;5.460;2023-09-30T14:44:40;7.78;;;3.70;;
58472;SDS011;44775;51.564;5.460;2023-09-30T14:47:06;6.97;;;3.22;;
58472;SDS011;44775;51.564;5.460;2023-09-30T14:49:32;7.40;;;3.35;;
58472;SDS011;44775;51.564;5.460;2023-09-30T14:51:57;8.43;;;3.67;;